Time;durP1;ratioP1;P1;durP2;ratioP2;P2;SDS_P1;SDS_P2;PMS_P1;PMS_P2;Temp;Humidity;BMP_temperature;BMP_pressure;BME280_temperature;BME280_humidity;BME280_pressure;Samples;Min_cycle;Max_cycle;Signal;HPM_P1;HPM_P2
2022/11/12 00:00:28;;;;;;;16.10;13.83;;;;;21.00;102015.00;;;;2071758;28;20222;-46
2022/11/12 00:01:29;;;;;;;15.50;13.33;;;;;21.30;102010.00;;;;2072326;28;20222;-45
2022/11/12 00:02:29;;;;;;;14.73;13.13;;;;;21.30;102011.00;;;;2071476;28;20226;-46
2022/11/12 00:03:29;;;;;;;14.90;12.97;;;;;21.30;102018.00;;;;2072332;28;20249;-45
2022/11/12 00:04:30;;;;;;;14.03;12.53;;;;;21.30;102019.00;;;;2072083;28;20225;-45
2022/11/12 00:05:30;;;;;;;14.20;12.70;;;;;21.30;102005.00;;;;2072430;28;20206;-46
2022/11/12 00:06:31;;;;;;;15.87;13.27;;;;;21.30;102014.00;;;;2077393;28;20224;-46
2022/11/12 00:07:31;;;;;;;14.60;13.10;;;;;21.30;102012.00;;;;2080111;28;20213;-45
2022/11/12 00:08:31;;;;;;;11.43;10.23;;;;;21.30;102016.00;;;;2080664;28;20240;-46
2022/11/12 00:09:32;;;;;;;14.27;12.47;;;;;21.30;102011.00;;;;2079755;28;20220;-46
2022/11/12 00:10:32;;;;;;;12.83;11.50;;;;;21.30;102013.00;;;;2080506;28;20209;-45
2022/11/12 00:11:32;;;;;;;13.03;11.43;;;;;21.30;102022.00;;;;2079703;28;20311;-45
2022/11/12 00:12:33;;;;;;;12.60;11.30;;;;;21.30;102020.00;;;;2079253;28;20304;-45
2022/11/12 00:13:33;;;;;;;12.80;11.50;;;;;21.20;102019.00;;;;2080240;28;20260;-45
2022/11/12 00:14:33;;;;;;;12.50;10.63;;;;;21.30;102023.00;;;;2080290;28;20252;-45
2022/11/12 00:15:34;;;;;;;12.60;10.90;;;;;21.20;102029.00;;;;2080485;28;20213;-46
2022/11/12 00:16:34;;;;;;;13.30;11.17;;;;;21.30;102023.00;;;;2080889;28;20252;-46
2022/11/12 00:17:35;;;;;;;14.20;10.87;;;;;21.40;102023.00;;;;2080937;28;20209;-45
2022/11/12 00:18:35;;;;;;;13.57;11.83;;;;;21.40;102025.00;;;;2080459;28;20207;-45
2022/11/12 00:19:35;;;;;;;13.20;11.27;;;;;21.40;102024.00;;;;2080159;28;20205;-45
2022/11/12 00:20:36;;;;;;;13.80;10.50;;;;;21.40;102020.00;;;;2080637;28;20233;-45
2022/11/12 00:21:36;;;;;;;15.10;10.10;;;;;21.40;102023.00;;;;2080623;28;20220;-45
2022/11/12 00:22:36;;;;;;;15.43;10.70;;;;;21.40;102025.00;;;;2079509;28;20197;-45
2022/11/12 00:23:37;;;;;;;15.50;10.67;;;;;21.40;102047.00;;;;2080491;28;20256;-46
2022/11/12 00:24:37;;;;;;;13.87;10.30;;;;;21.40;102031.00;;;;2080291;28;20795;-45
2022/11/12 00:25:37;;;;;;;14.40;10.50;;;;;21.40;102026.00;;;;2080762;28;20877;-45
2022/11/12 00:26:38;;;;;;;15.23;9.93;;;;;21.40;102028.00;;;;2080823;28;20692;-45
2022/11/12 00:27:38;;;;;;;15.50;10.57;;;;;21.40;102031.00;;;;2080812;28;20229;-45
2022/11/12 00:28:38;;;;;;;17.83;9.43;;;;;21.40;102021.00;;;;2080717;28;20212;-45
2022/11/12 00:29:39;;;;;;;17.77;11.23;;;;;21.40;102031.00;;;;2080207;28;20217;-45
2022/11/12 00:30:39;;;;;;;20.90;10.37;;;;;21.40;102019.00;;;;2080332;28;20224;-45
2022/11/12 00:31:39;;;;;;;14.20;10.00;;;;;21.40;102027.00;;;;2076087;28;20222;-45
2022/11/12 00:32:40;;;;;;;16.20;10.17;;;;;21.40;102023.00;;;;2071565;28;20230;-45
2022/11/12 00:33:41;;;;;;;12.93;9.50;;;;;21.30;102023.00;;;;2072575;28;20222;-45
2022/11/12 00:34:41;;;;;;;16.13;9.50;;;;;21.40;102028.00;;;;2076130;28;20225;-45
2022/11/12 00:35:41;;;;;;;15.60;8.77;;;;;21.40;102025.00;;;;2080419;28;20880;-45
2022/11/12 00:36:42;;;;;;;12.70;7.90;;;;;21.40;102019.00;;;;2080320;28;20266;-45
2022/11/12 00:37:42;;;;;;;12.77;7.87;;;;;21.40;102030.00;;;;2080364;28;20210;-45
2022/11/12 00:38:42;;;;;;;15.80;9.03;;;;;21.30;102021.00;;;;2080467;28;20286;-45
2022/11/12 00:39:43;;;;;;;14.20;8.53;;;;;21.30;102026.00;;;;2080214;28;20209;-45
2022/11/12 00:40:44;;;;;;;13.30;8.57;;;;;21.30;102036.00;;;;2080211;28;20217;-46
2022/11/12 00:41:44;;;;;;;19.40;8.90;;;;;21.40;102027.00;;;;2080024;28;20543;-45
2022/11/12 00:42:44;;;;;;;13.50;7.67;;;;;21.50;102024.00;;;;2079608;28;20209;-46
2022/11/12 00:43:44;;;;;;;13.43;9.00;;;;;21.60;102025.00;;;;2080406;28;20275;-46
2022/11/12 00:44:45;;;;;;;14.50;8.53;;;;;21.60;102033.00;;;;2080533;28;20241;-45
2022/11/12 00:45:45;;;;;;;13.00;8.03;;;;;21.60;102034.00;;;;2080231;28;20209;-46
2022/11/12 00:46:45;;;;;;;15.27;8.70;;;;;21.60;102040.00;;;;2080235;28;20216;-45
2022/11/12 00:47:46;;;;;;;10.93;8.27;;;;;21.60;102042.00;;;;2076860;28;20242;-45
2022/11/12 00:48:46;;;;;;;13.73;7.50;;;;;21.60;102042.00;;;;2072249;28;20624;-45
2022/11/12 00:49:46;;;;;;;11.60;8.10;;;;;21.60;102040.00;;;;2072404;28;20297;-45
2022/11/12 00:50:47;;;;;;;10.83;7.20;;;;;21.60;102038.00;;;;2072372;28;20206;-46
2022/11/12 00:51:48;;;;;;;15.40;7.00;;;;;21.50;102042.00;;;;2071358;28;20271;-46
2022/11/12 00:52:50;;;;;;;11.43;7.03;;;;;21.50;102040.00;;;;2072062;28;20226;-47
2022/11/12 00:53:51;;;;;;;13.45;7.88;;;;;21.50;102048.00;;;;2071692;28;21070;-46
2022/11/12 00:54:51;;;;;;;11.83;6.70;;;;;21.50;102041.00;;;;2072452;28;20276;-45
2022/11/12 00:55:51;;;;;;;10.50;7.20;;;;;21.50;102044.00;;;;2073384;28;20226;-45
2022/11/12 00:56:52;;;;;;;8.77;7.17;;;;;21.50;102032.00;;;;2072248;28;20238;-45
2022/11/12 00:57:52;;;;;;;8.87;6.60;;;;;21.20;102053.00;;;;2072686;28;20237;-45
2022/11/12 00:58:52;;;;;;;10.33;6.60;;;;;21.50;102043.00;;;;2071901;28;20717;-46
2022/11/12 00:59:53;;;;;;;11.50;6.73;;;;;21.50;102050.00;;;;2072537;28;20214;-45
2022/11/12 01:00:53;;;;;;;6.47;5.80;;;;;21.50;102031.00;;;;2065127;28;20256;-46
2022/11/12 01:01:53;;;;;;;8.73;6.20;;;;;21.50;102039.00;;;;2071054;28;20259;-46
2022/11/12 01:02:54;;;;;;;8.00;6.73;;;;;21.50;102050.00;;;;2072807;28;20276;-46
2022/11/12 01:03:56;;;;;;;10.50;6.40;;;;;21.50;102043.00;;;;2072835;28;20233;-46
2022/11/12 01:04:56;;;;;;;7.53;6.28;;;;;21.50;102045.00;;;;2072081;28;20230;-45
2022/11/12 01:06:08;;;;;;;10.00;6.47;;;;;21.50;102050.00;;;;2071888;28;20253;-46
2022/11/12 01:07:09;;;;;;;7.78;6.18;;;;;21.40;102050.00;;;;2072255;28;20222;-46
2022/11/12 01:08:09;;;;;;;10.10;6.30;;;;;21.50;102047.00;;;;2073036;28;21122;-46
2022/11/12 01:09:09;;;;;;;8.87;6.40;;;;;21.50;102053.00;;;;2071207;28;20720;-45
2022/11/12 01:10:10;;;;;;;7.80;6.00;;;;;21.50;102058.00;;;;2072005;28;20712;-47
2022/11/12 01:11:18;;;;;;;8.97;6.20;;;;;21.50;102052.00;;;;2071590;28;20913;-46
2022/11/12 01:12:19;;;;;;;7.40;5.50;;;;;21.50;102051.00;;;;2075775;28;20218;-46
2022/11/12 01:13:19;;;;;;;6.13;5.07;;;;;21.50;102042.00;;;;2076338;28;20279;-45
2022/11/12 01:14:19;;;;;;;8.10;6.10;;;;;21.50;102042.00;;;;2080185;28;20304;-46
2022/11/12 01:15:20;;;;;;;12.30;6.13;;;;;21.40;102039.00;;;;2072479;28;20267;-45
2022/11/12 01:16:21;;;;;;;6.90;5.20;;;;;21.50;102046.00;;;;2072161;28;20780;-45
2022/11/12 01:17:21;;;;;;;6.20;5.60;;;;;21.50;102042.00;;;;2071895;28;20237;-46
2022/11/12 01:18:22;;;;;;;7.40;5.50;;;;;21.40;102047.00;;;;2071537;28;20700;-46
2022/11/12 01:19:22;;;;;;;7.50;5.50;;;;;21.50;102044.00;;;;2072279;28;20218;-46
2022/11/12 01:20:22;;;;;;;7.10;6.40;;;;;21.50;102043.00;;;;2072055;28;20890;-47
2022/11/12 01:21:24;;;;;;;6.40;5.30;;;;;21.50;102049.00;;;;2072208;28;20285;-46
2022/11/12 01:22:24;;;;;;;7.38;5.60;;;;;21.40;102032.00;;;;2068560;28;20241;-46
2022/11/12 01:23:24;;;;;;;6.87;5.07;;;;;21.50;102045.00;;;;2071446;28;20293;-46
2022/11/12 01:24:25;;;;;;;6.40;5.20;;;;;21.40;102041.00;;;;2072485;28;20210;-45
2022/11/12 01:25:25;;;;;;;6.90;5.60;;;;;21.40;102046.00;;;;2072026;28;20210;-46
2022/11/12 01:26:27;;;;;;;5.60;5.00;;;;;21.50;102047.00;;;;2071904;28;20230;-46
2022/11/12 01:27:27;;;;;;;7.38;5.25;;;;;21.40;102045.00;;;;2071411;28;20272;-46
2022/11/12 01:28:27;;;;;;;7.93;6.20;;;;;21.40;102047.00;;;;2070431;28;20272;-45
2022/11/12 01:29:28;;;;;;;7.43;5.30;;;;;21.40;102048.00;;;;2071945;28;20328;-46
2022/11/12 01:30:28;;;;;;;6.40;5.17;;;;;21.40;102046.00;;;;2072131;28;20218;-46
2022/11/12 01:31:35;;;;;;;4.97;4.30;;;;;21.40;102050.00;;;;2071970;28;20214;-45
2022/11/12 01:32:36;;;;;;;6.20;4.85;;;;;21.40;102047.00;;;;2070535;28;20224;-48
2022/11/12 01:33:37;;;;;;;7.27;4.67;;;;;21.40;102050.00;;;;2074865;28;20213;-47
2022/11/12 01:34:38;;;;;;;7.82;4.80;;;;;21.40;102051.00;;;;2080150;28;20221;-45
2022/11/12 01:35:38;;;;;;;6.57;4.67;;;;;21.40;102069.00;;;;2080728;28;20695;-46
2022/11/12 01:36:38;;;;;;;6.13;4.70;;;;;21.40;102054.00;;;;2080015;28;20708;-46
2022/11/12 01:37:39;;;;;;;5.37;4.87;;;;;21.40;102053.00;;;;2080493;28;20999;-46
2022/11/12 01:38:39;;;;;;;6.37;4.47;;;;;21.50;102052.00;;;;2080445;28;20220;-47
2022/11/12 01:39:40;;;;;;;5.70;4.47;;;;;21.50;102055.00;;;;2080319;28;20241;-45
2022/11/12 01:40:40;;;;;;;6.00;4.23;;;;;21.40;102047.00;;;;2080644;28;20704;-45
2022/11/12 01:41:40;;;;;;;5.40;4.80;;;;;21.40;102045.00;;;;2080547;28;20632;-46
2022/11/12 01:42:41;;;;;;;6.60;4.80;;;;;21.40;102052.00;;;;2079308;28;20538;-46
2022/11/12 01:43:41;;;;;;;6.17;5.00;;;;;21.50;102050.00;;;;2080128;28;20573;-46
2022/11/12 01:44:43;;;;;;;8.17;4.60;;;;;21.40;102049.00;;;;2080096;28;20709;-45
2022/11/12 01:45:45;;;;;;;5.50;4.32;;;;;21.40;102041.00;;;;2080383;28;21205;-46
2022/11/12 01:46:57;;;;;;;5.32;4.80;;;;;21.40;102048.00;;;;2079666;28;20728;-46
2022/11/12 01:47:58;;;;;;;6.55;4.93;;;;;21.40;102042.00;;;;2072865;28;20222;-45
2022/11/12 01:49:03;;;;;;;5.57;4.57;;;;;21.40;102041.00;;;;2070029;28;20226;-46
2022/11/12 01:50:26;;;;;;;4.82;4.32;;;;;21.50;102037.00;;;;2071419;28;20275;-46
2022/11/12 01:51:31;;;;;;;4.82;3.70;;;;;21.40;102041.00;;;;2079060;28;20202;-45
2022/11/12 01:52:37;;;;;;;4.60;4.13;;;;;21.40;102037.00;;;;2078307;28;20248;-46
2022/11/12 01:53:41;;;;;;;5.05;4.45;;;;;21.40;102034.00;;;;2071735;28;20210;-46
2022/11/12 01:54:41;;;;;;;4.85;4.00;;;;;21.40;102023.00;;;;2071080;28;20901;-46
2022/11/12 01:55:41;;;;;;;6.13;4.33;;;;;21.40;102038.00;;;;2067561;28;20305;-46
2022/11/12 01:56:42;;;;;;;4.57;4.03;;;;;21.40;102041.00;;;;2071352;28;20221;-46
2022/11/12 01:57:48;;;;;;;4.50;4.03;;;;;21.40;102038.00;;;;2071216;28;20242;-46
2022/11/12 01:58:51;;;;;;;4.63;4.00;;;;;21.40;102043.00;;;;2071962;28;20271;-45
2022/11/12 01:59:53;;;;;;;4.90;4.15;;;;;21.40;102041.00;;;;2071124;28;20218;-45
2022/11/12 02:00:53;;;;;;;4.35;3.95;;;;;21.40;102026.00;;;;2079477;28;20251;-45
2022/11/12 02:01:53;;;;;;;5.23;4.10;;;;;21.40;102040.00;;;;2076278;28;20228;-46
2022/11/12 02:02:59;;;;;;;5.30;3.87;;;;;21.40;102024.00;;;;2071166;28;20241;-46
2022/11/12 02:03:59;;;;;;;6.13;4.40;;;;;21.40;102040.00;;;;2072304;28;21204;-45
2022/11/12 02:05:01;;;;;;;5.03;3.70;;;;;21.40;102048.00;;;;2073492;28;20222;-46
2022/11/12 02:06:04;;;;;;;6.05;4.38;;;;;21.40;102036.00;;;;2070836;28;20328;-46
2022/11/12 02:07:05;;;;;;;4.53;3.80;;;;;21.40;102036.00;;;;2062939;28;20261;-46
2022/11/12 02:08:06;;;;;;;4.63;4.03;;;;;21.40;102043.00;;;;2062979;28;20655;-45
2022/11/12 02:09:06;;;;;;;5.17;4.10;;;;;21.40;102037.00;;;;2068919;28;20218;-45
2022/11/12 02:10:07;;;;;;;5.00;3.80;;;;;21.40;102043.00;;;;2075920;28;20234;-46
2022/11/12 02:11:18;;;;;;;3.83;3.33;;;;;21.40;102035.00;;;;2062494;28;20655;-45
2022/11/12 02:14:19;;;;;;;4.68;3.92;;;;;21.40;102034.00;;;;2070698;28;20733;-45
2022/11/12 02:15:01;;;;;;;4.90;3.67;;;;;21.40;102035.00;;;;2063461;28;20214;-46
2022/11/12 02:16:03;;;;;;;3.93;3.47;;;;;21.40;102030.00;;;;2071174;28;20245;-46
2022/11/12 02:17:03;;;;;;;4.80;3.60;;;;;21.40;102030.00;;;;2070777;28;20222;-45
2022/11/12 02:18:04;;;;;;;3.97;3.57;;;;;21.40;102010.00;;;;2070980;28;20306;-46
2022/11/12 02:19:05;;;;;;;4.67;4.20;;;;;21.40;102025.00;;;;2071044;28;20218;-45
2022/11/12 02:20:10;;;;;;;4.25;3.60;;;;;21.40;102024.00;;;;2071046;28;20218;-45
2022/11/12 02:21:10;;;;;;;4.35;3.63;;;;;21.40;102014.00;;;;2071525;28;20619;-45
2022/11/12 02:22:10;;;;;;;4.43;4.03;;;;;21.40;102025.00;;;;2070194;28;20248;-45
2022/11/12 02:23:11;;;;;;;4.00;3.60;;;;;21.40;102026.00;;;;2071321;28;20214;-44
2022/11/12 02:24:11;;;;;;;4.03;3.63;;;;;21.40;102025.00;;;;2071699;28;20218;-45
2022/11/12 02:25:12;;;;;;;5.13;3.80;;;;;21.30;102028.00;;;;2071378;28;20607;-45
2022/11/12 02:26:12;;;;;;;3.65;3.25;;;;;21.40;102026.00;;;;2063208;28;20253;-45
2022/11/12 02:27:13;;;;;;;4.10;3.40;;;;;21.40;102031.00;;;;2065867;28;20272;-45
2022/11/12 02:28:13;;;;;;;4.77;3.67;;;;;21.30;102024.00;;;;2079917;28;20258;-46
2022/11/12 02:29:13;;;;;;;3.73;3.30;;;;;21.30;102020.00;;;;2079428;28;20214;-46
2022/11/12 02:30:14;;;;;;;4.43;3.23;;;;;21.30;102025.00;;;;2077395;28;20213;-46
2022/11/12 02:31:14;;;;;;;4.60;4.20;;;;;21.30;102023.00;;;;2071588;28;20294;-46
2022/11/12 02:32:14;;;;;;;4.33;3.17;;;;;21.30;102021.00;;;;2070515;28;20235;-45
2022/11/12 02:33:15;;;;;;;5.90;3.30;;;;;21.40;102021.00;;;;2075453;28;20606;-52
2022/11/12 02:34:15;;;;;;;3.37;3.07;;;;;21.40;102026.00;;;;2079221;28;20286;-51
2022/11/12 02:35:15;;;;;;;5.43;3.07;;;;;21.30;102021.00;;;;2079348;28;20201;-46
2022/11/12 02:36:16;;;;;;;5.70;3.53;;;;;21.30;102021.00;;;;2079517;28;20704;-47
2022/11/12 02:37:16;;;;;;;3.50;3.10;;;;;21.20;102018.00;;;;2079375;28;20201;-47
2022/11/12 02:38:16;;;;;;;4.87;3.77;;;;;21.20;102021.00;;;;2079076;28;20201;-46
2022/11/12 02:39:17;;;;;;;4.10;3.30;;;;;21.10;102024.00;;;;2079368;28;20204;-46
2022/11/12 02:40:17;;;;;;;3.63;3.00;;;;;21.10;102040.00;;;;2079451;28;20201;-46
2022/11/12 02:41:18;;;;;;;3.50;3.10;;;;;21.10;102033.00;;;;2076690;28;20567;-47
2022/11/12 02:42:18;;;;;;;4.43;3.30;;;;;21.10;101947.00;;;;2078695;28;20724;-46
2022/11/12 02:43:18;;;;;;;3.80;3.50;;;;;21.10;102025.00;;;;2079052;28;20247;-46
2022/11/12 02:44:19;;;;;;;4.00;3.60;;;;;21.00;102022.00;;;;2072604;28;20583;-45
2022/11/12 02:45:19;;;;;;;3.93;2.93;;;;;21.00;102008.00;;;;2071102;28;20214;-47
2022/11/12 02:46:20;;;;;;;3.40;3.10;;;;;21.00;102032.00;;;;2070785;28;20744;-46
2022/11/12 02:47:20;;;;;;;3.53;3.23;;;;;21.00;102027.00;;;;2070945;28;20206;-46
2022/11/12 02:48:20;;;;;;;4.00;3.70;;;;;21.00;102029.00;;;;2071497;28;20206;-45
2022/11/12 02:49:21;;;;;;;5.43;3.20;;;;;21.00;102029.00;;;;2071708;28;20214;-46
2022/11/12 02:50:21;;;;;;;3.80;3.20;;;;;21.00;102011.00;;;;2070598;28;20222;-46
2022/11/12 02:51:21;;;;;;;3.70;2.90;;;;;21.00;102029.00;;;;2070418;28;20234;-45
2022/11/12 02:52:22;;;;;;;3.57;3.27;;;;;21.00;102034.00;;;;2070336;28;20214;-46
2022/11/12 02:53:22;;;;;;;3.67;2.93;;;;;21.00;102028.00;;;;2070792;28;20253;-46
2022/11/12 02:54:22;;;;;;;3.43;3.10;;;;;21.00;102031.00;;;;2075663;28;20213;-45
2022/11/12 02:55:23;;;;;;;4.80;3.23;;;;;21.00;102035.00;;;;2077712;28;20202;-45
2022/11/12 02:56:23;;;;;;;3.50;3.20;;;;;21.00;102029.00;;;;2071422;28;20724;-45
2022/11/12 02:57:23;;;;;;;3.67;3.00;;;;;20.90;102032.00;;;;2071599;28;20758;-45
2022/11/12 02:58:24;;;;;;;3.00;2.70;;;;;20.90;102035.00;;;;2071379;28;20210;-45
2022/11/12 02:59:24;;;;;;;5.03;3.37;;;;;20.90;102033.00;;;;2071116;28;20241;-45
2022/11/12 03:00:24;;;;;;;3.60;3.20;;;;;20.90;102037.00;;;;2070540;28;20222;-45
2022/11/12 03:01:25;;;;;;;3.10;2.90;;;;;20.90;102036.00;;;;2070813;28;20232;-46
2022/11/12 03:02:25;;;;;;;3.60;2.67;;;;;20.90;102030.00;;;;2070043;28;20252;-46
2022/11/12 03:03:25;;;;;;;3.43;3.10;;;;;20.90;102034.00;;;;2071582;28;20194;-46
2022/11/12 03:04:26;;;;;;;5.23;3.30;;;;;20.90;102034.00;;;;2071130;28;20199;-45
2022/11/12 03:05:28;;;;;;;3.03;2.83;;;;;20.90;102035.00;;;;2071468;28;20237;-45
2022/11/12 03:06:28;;;;;;;2.90;2.65;;;;;20.90;102036.00;;;;2071316;28;20268;-45
2022/11/12 03:07:28;;;;;;;3.47;3.10;;;;;20.90;102031.00;;;;2071279;28;20203;-46
2022/11/12 03:08:29;;;;;;;3.30;3.00;;;;;20.90;102037.00;;;;2071614;28;20292;-45
2022/11/12 03:09:29;;;;;;;4.30;3.07;;;;;20.80;102030.00;;;;2071198;28;20218;-46
2022/11/12 03:10:29;;;;;;;3.40;3.10;;;;;20.80;102031.00;;;;2071590;28;20224;-46
2022/11/12 03:11:30;;;;;;;3.33;3.03;;;;;20.80;102037.00;;;;2071358;28;20249;-46
2022/11/12 03:12:31;;;;;;;3.40;3.10;;;;;20.80;102034.00;;;;2070218;28;20207;-45
2022/11/12 03:13:31;;;;;;;3.40;3.10;;;;;20.80;102031.00;;;;2071335;28;20213;-46
2022/11/12 03:14:31;;;;;;;3.27;2.97;;;;;20.50;102032.00;;;;2071502;28;20210;-45
2022/11/12 03:15:32;;;;;;;3.60;3.30;;;;;20.80;102029.00;;;;2070296;28;20214;-46
2022/11/12 03:16:32;;;;;;;3.30;3.00;;;;;20.80;102032.00;;;;2071172;28;20221;-45
2022/11/12 03:17:35;;;;;;;3.70;3.40;;;;;20.80;102021.00;;;;2071417;28;20210;-46
2022/11/12 03:18:36;;;;;;;3.92;3.50;;;;;20.80;102023.00;;;;2071070;28;20581;-46
2022/11/12 03:19:36;;;;;;;4.10;3.50;;;;;20.80;102030.00;;;;2071471;28;20249;-45
2022/11/12 03:20:37;;;;;;;3.47;3.17;;;;;20.80;102028.00;;;;2071491;28;20218;-45
2022/11/12 03:21:37;;;;;;;3.20;2.90;;;;;20.80;102031.00;;;;2070802;28;20226;-45
2022/11/12 03:22:38;;;;;;;4.07;3.67;;;;;20.70;102039.00;;;;2070769;28;20260;-45
2022/11/12 03:23:38;;;;;;;3.20;2.87;;;;;20.80;102040.00;;;;2071704;28;20218;-45
2022/11/12 03:24:38;;;;;;;4.17;3.80;;;;;20.80;102042.00;;;;2079865;28;20700;-45
2022/11/12 03:25:39;;;;;;;4.10;3.47;;;;;20.70;102029.00;;;;2079455;28;20237;-45
2022/11/12 03:26:39;;;;;;;3.67;3.20;;;;;20.80;102028.00;;;;2079465;28;20765;-45
2022/11/12 03:27:39;;;;;;;3.50;3.20;;;;;20.80;102027.00;;;;2079801;28;20214;-45
2022/11/12 03:28:39;;;;;;;3.47;3.17;;;;;20.80;102020.00;;;;2079528;28;20232;-45
2022/11/12 03:29:40;;;;;;;3.50;3.20;;;;;20.70;102021.00;;;;2073800;28;20278;-46
2022/11/12 03:30:41;;;;;;;3.40;3.10;;;;;20.70;102019.00;;;;2071470;28;20218;-45
2022/11/12 03:31:41;;;;;;;4.10;3.60;;;;;20.70;102023.00;;;;2071249;28;20268;-45
2022/11/12 03:32:41;;;;;;;3.33;3.03;;;;;20.70;102022.00;;;;2071214;28;20470;-45
2022/11/12 03:33:42;;;;;;;3.40;3.10;;;;;20.70;102022.00;;;;2071278;28;20229;-45
2022/11/12 03:34:42;;;;;;;3.57;3.27;;;;;20.70;102035.00;;;;2070793;28;20225;-45
2022/11/12 03:35:42;;;;;;;3.73;3.43;;;;;20.70;102031.00;;;;2071552;28;20241;-45
2022/11/12 03:36:43;;;;;;;4.57;2.97;;;;;20.40;102037.00;;;;2071549;28;20214;-45
2022/11/12 03:37:43;;;;;;;3.47;3.20;;;;;20.70;102025.00;;;;2071641;28;20232;-46
2022/11/12 03:38:43;;;;;;;3.10;2.80;;;;;20.70;102020.00;;;;2071791;28;20419;-46
2022/11/12 03:39:44;;;;;;;3.20;2.90;;;;;20.70;102021.00;;;;2071557;28;20250;-45
2022/11/12 03:40:44;;;;;;;3.30;3.00;;;;;20.70;102031.00;;;;2071482;28;20222;-45
2022/11/12 03:41:44;;;;;;;3.27;3.03;;;;;20.70;102016.00;;;;2071163;28;20292;-46
2022/11/12 03:42:46;;;;;;;3.60;3.30;;;;;20.70;102024.00;;;;2070626;28;20232;-46
2022/11/12 03:43:46;;;;;;;3.55;3.25;;;;;20.70;102029.00;;;;2071687;28;20218;-46
2022/11/12 03:44:47;;;;;;;4.07;3.67;;;;;20.70;102020.00;;;;2071483;28;20361;-45
2022/11/12 03:45:47;;;;;;;3.13;2.83;;;;;20.70;101934.00;;;;2071494;28;20237;-45
2022/11/12 03:46:47;;;;;;;4.10;3.30;;;;;20.70;102027.00;;;;2071450;28;20202;-46
2022/11/12 03:47:49;;;;;;;4.03;3.63;;;;;20.70;102026.00;;;;2071196;28;20312;-46
2022/11/12 03:48:49;;;;;;;4.03;3.70;;;;;20.70;102021.00;;;;2070429;28;20225;-45
2022/11/12 03:49:50;;;;;;;3.33;3.03;;;;;20.60;102027.00;;;;2070778;28;20220;-46
2022/11/12 03:50:50;;;;;;;3.50;3.20;;;;;20.70;102025.00;;;;2071590;28;20233;-46
2022/11/12 03:51:50;;;;;;;3.60;3.30;;;;;20.60;102031.00;;;;2070611;28;20281;-45
2022/11/12 03:52:52;;;;;;;3.83;3.53;;;;;20.60;102024.00;;;;2071315;28;20272;-46
2022/11/12 03:53:52;;;;;;;4.05;3.70;;;;;20.60;102032.00;;;;2070579;28;20217;-45
2022/11/12 03:54:53;;;;;;;3.60;3.30;;;;;20.60;102028.00;;;;2069136;28;20221;-46
2022/11/12 03:55:53;;;;;;;3.67;3.37;;;;;20.60;102019.00;;;;2075305;28;20245;-46
2022/11/12 03:56:53;;;;;;;3.60;3.30;;;;;20.60;102022.00;;;;2074803;28;20233;-46
2022/11/12 03:57:54;;;;;;;3.70;3.40;;;;;20.60;102017.00;;;;2071732;28;20230;-45
2022/11/12 03:58:54;;;;;;;3.57;3.27;;;;;20.60;102023.00;;;;2078875;28;20753;-46
2022/11/12 03:59:54;;;;;;;4.00;3.70;;;;;20.60;102011.00;;;;2078738;28;20217;-46
2022/11/12 04:00:55;;;;;;;4.50;4.10;;;;;20.60;102011.00;;;;2074979;28;20218;-46
2022/11/12 04:01:55;;;;;;;3.90;3.60;;;;;20.60;102009.00;;;;2069931;28;20293;-45
2022/11/12 04:02:55;;;;;;;3.90;3.60;;;;;20.60;102010.00;;;;2070633;28;20226;-46
2022/11/12 04:03:56;;;;;;;3.57;3.27;;;;;20.60;102008.00;;;;2070720;28;20225;-45
2022/11/12 04:08:53;;;;;;;3.38;3.08;;;;;20.50;102009.00;;;;2078857;28;20209;-46
2022/11/12 04:09:53;;;;;;;3.73;3.43;;;;;20.60;102001.00;;;;2075313;28;20230;-46
2022/11/12 04:10:54;;;;;;;3.97;3.23;;;;;20.60;102001.00;;;;2070674;28;20690;-46
2022/11/12 04:11:54;;;;;;;3.77;3.37;;;;;20.60;101993.00;;;;2075019;28;20893;-45
2022/11/12 04:14:13;;;;;;;4.05;3.75;;;;;20.60;101995.00;;;;2076640;28;20301;-46
2022/11/12 04:15:14;;;;;;;3.67;3.30;;;;;20.50;101993.00;;;;2070685;28;20210;-47
2022/11/12 04:21:53;;;;;;;4.15;3.40;;;;;20.50;101985.00;;;;2073621;28;20209;-47
2022/11/12 04:22:53;;;;;;;3.55;3.25;;;;;20.50;101979.00;;;;2078515;28;20217;-46
2022/11/12 04:23:53;;;;;;;3.60;3.30;;;;;20.50;101979.00;;;;2070122;28;20226;-47
2022/11/12 04:26:22;;;;;;;3.42;3.10;;;;;20.50;101981.00;;;;2073291;28;20689;-46
2022/11/12 04:27:32;;;;;;;3.33;3.03;;;;;20.20;101981.00;;;;2076369;28;20276;-47
2022/11/12 04:28:32;;;;;;;4.68;3.35;;;;;20.50;101979.00;;;;2070131;28;20206;-45
2022/11/12 04:30:51;;;;;;;3.75;3.20;;;;;20.50;101982.00;;;;2075312;28;20721;-46
2022/11/12 04:31:52;;;;;;;3.60;3.30;;;;;20.50;101981.00;;;;2070593;28;20222;-45
2022/11/12 04:32:53;;;;;;;3.80;3.40;;;;;20.50;101987.00;;;;2076309;28;20256;-45
2022/11/12 04:33:53;;;;;;;3.30;3.00;;;;;20.50;101979.00;;;;2078110;28;20210;-46
2022/11/12 04:34:54;;;;;;;4.20;3.83;;;;;20.40;101985.00;;;;2077899;28;20226;-46
2022/11/12 04:35:54;;;;;;;3.90;3.20;;;;;20.50;101984.00;;;;2078349;28;20224;-47
2022/11/12 04:36:54;;;;;;;4.70;3.50;;;;;20.50;101985.00;;;;2074795;28;20296;-47
2022/11/12 04:37:55;;;;;;;4.23;3.20;;;;;20.40;101982.00;;;;2078458;28;20213;-46
2022/11/12 04:38:55;;;;;;;3.70;3.40;;;;;20.50;101979.00;;;;2066293;28;20222;-46
2022/11/12 04:44:58;;;;;;;3.60;3.30;;;;;20.50;101982.00;;;;2069790;28;20226;-45
2022/11/12 04:45:12;;;;;;;3.47;3.17;;;;;20.50;101985.00;;;;2072667;28;20853;-45
2022/11/12 04:46:13;;;;;;;3.00;2.70;;;;;20.50;101984.00;;;;2076584;28;20225;-47
2022/11/12 04:47:13;;;;;;;7.17;3.53;;;;;20.40;101975.00;;;;2075973;28;20213;-46
2022/11/12 04:48:13;;;;;;;3.63;3.27;;;;;20.40;101986.00;;;;2075183;28;20221;-46
2022/11/12 04:49:13;;;;;;;3.40;3.10;;;;;20.40;101975.00;;;;2071543;28;20237;-45
2022/11/12 04:50:16;;;;;;;3.33;3.03;;;;;20.40;101979.00;;;;2071457;28;20237;-45
2022/11/12 04:52:35;;;;;;;3.38;3.08;;;;;20.40;101982.00;;;;2079598;28;20296;-46
2022/11/12 04:53:35;;;;;;;3.23;2.93;;;;;20.40;101979.00;;;;2079019;28;20697;-47
2022/11/12 04:54:36;;;;;;;3.83;3.33;;;;;20.40;101981.00;;;;2075919;28;20701;-48
2022/11/12 04:55:36;;;;;;;3.30;3.00;;;;;20.40;101973.00;;;;2073931;28;20697;-49
2022/11/12 04:56:36;;;;;;;3.20;2.90;;;;;20.40;101982.00;;;;2078483;28;20361;-47
2022/11/12 04:57:37;;;;;;;3.30;3.00;;;;;20.40;101977.00;;;;2080086;28;20214;-46
2022/11/12 04:58:37;;;;;;;3.20;2.90;;;;;20.40;101974.00;;;;2080207;28;20212;-46
2022/11/12 04:59:37;;;;;;;3.00;2.70;;;;;20.40;101974.00;;;;2080059;28;20213;-45
2022/11/12 05:00:38;;;;;;;3.23;2.97;;;;;20.40;101971.00;;;;2078778;28;20213;-47
2022/11/12 05:01:38;;;;;;;3.40;3.10;;;;;20.40;101968.00;;;;2079056;28;20218;-47
2022/11/12 05:02:38;;;;;;;3.00;2.80;;;;;20.40;101971.00;;;;2077588;28;20416;-46
2022/11/12 05:03:39;;;;;;;3.10;2.90;;;;;20.40;101966.00;;;;2079571;28;20215;-46
2022/11/12 05:04:39;;;;;;;3.13;2.83;;;;;20.40;101975.00;;;;2079928;28;20213;-46
2022/11/12 05:05:39;;;;;;;3.20;2.90;;;;;20.40;101967.00;;;;2073570;28;20264;-46
2022/11/12 05:06:51;;;;;;;3.57;3.27;;;;;20.40;101968.00;;;;2071758;28;20213;-46
2022/11/12 05:07:52;;;;;;;3.13;2.83;;;;;20.30;101970.00;;;;2071633;28;20207;-45
2022/11/12 05:08:52;;;;;;;3.50;3.20;;;;;20.40;101979.00;;;;2072041;28;20210;-46
2022/11/12 05:09:52;;;;;;;3.30;2.97;;;;;20.40;101971.00;;;;2071956;28;20214;-46
2022/11/12 05:10:52;;;;;;;4.03;2.80;;;;;20.40;101968.00;;;;2072026;28;20299;-46
2022/11/12 05:11:56;;;;;;;3.60;3.27;;;;;20.40;101966.00;;;;2071021;28;20296;-46
2022/11/12 05:12:56;;;;;;;3.58;3.28;;;;;20.40;101965.00;;;;2071819;28;20633;-46
2022/11/12 05:13:57;;;;;;;3.23;2.93;;;;;20.30;101966.00;;;;2072633;28;20221;-46
2022/11/12 05:14:57;;;;;;;3.70;3.40;;;;;20.30;101959.00;;;;2079867;28;20233;-46
2022/11/12 05:15:57;;;;;;;5.33;3.10;;;;;20.30;101953.00;;;;2079985;28;20217;-46
2022/11/12 05:16:58;;;;;;;3.23;2.93;;;;;20.30;101957.00;;;;2072220;28;20218;-46
2022/11/12 05:17:58;;;;;;;3.03;2.50;;;;;20.30;101955.00;;;;2071474;28;20218;-46
2022/11/12 05:18:58;;;;;;;3.93;3.33;;;;;20.30;101959.00;;;;2071722;28;20721;-46
2022/11/12 05:19:59;;;;;;;3.77;3.33;;;;;20.30;101960.00;;;;2073978;28;21502;-46
2022/11/12 05:22:03;;;;;;;3.63;3.33;;;;;20.30;101960.00;;;;2079770;28;20245;-46